Terminal Aerodrome Forecast
Issued by NWS

Home | Current Version | Previous Version | Text Only | Print | Product List | Glossary On
Versions: 1 2 3 4 5 6 7 8 9 10 11 12 13 14 15 16 17
375
FTUS45 KABQ 291742 AAA
TAFLVS
TAF AMD
KLVS 291742Z 2918/3018 02016G26KT P6SM SCT070 BKN150
     FM292000 02013G23KT P6SM VCSH SCT060 BKN150
     FM300200 19009KT P6SM FEW060 SCT100
     FM300800 26009KT P6SM SKC
     FM301730 25011G21KT P6SM SCT200=

USA.gov is the U.S. government's official web portal to all federal, state and local government web resources and services.